createdAt,value
2023-04-02T00:02:21.963Z,8.10
2023-04-02T00:05:07.217Z,8.10
2023-04-02T00:07:33.825Z,8.00
2023-04-02T00:10:00.427Z,7.90
2023-04-02T00:12:27.018Z,8.00
2023-04-02T00:14:54.819Z,8.00
2023-04-02T00:17:23.608Z,8.00
2023-04-02T00:19:56.303Z,8.10
2023-04-02T00:22:31.585Z,8.10
2023-04-02T00:25:00.339Z,8.00
2023-04-02T00:27:26.993Z,7.90
2023-04-02T00:29:58.230Z,7.90
2023-04-02T00:32:29.139Z,7.80
2023-04-02T00:34:56.023Z,7.70
2023-04-02T00:37:25.031Z,7.70
2023-04-02T00:39:53.101Z,7.70
2023-04-02T00:42:19.857Z,7.70
2023-04-02T00:44:46.676Z,7.70
2023-04-02T00:47:20.123Z,7.80
2023-04-02T00:49:47.349Z,7.70
2023-04-02T00:52:18.558Z,7.70
2023-04-02T00:54:50.744Z,7.80
2023-04-02T00:57:20.266Z,7.70
2023-04-02T00:59:56.076Z,7.80
2023-04-02T01:02:28.479Z,7.80
2023-04-02T01:04:56.955Z,7.80
2023-04-02T01:07:27.293Z,7.80
2023-04-02T01:10:09.208Z,7.80
2023-04-02T01:12:54.893Z,7.90
2023-04-02T01:15:23.858Z,7.80
2023-04-02T01:18:09.629Z,7.70
2023-04-02T01:20:36.604Z,7.70
2023-04-02T01:23:19.436Z,7.70
2023-04-02T01:25:53.556Z,7.70
2023-04-02T01:28:37.446Z,7.70
2023-04-02T01:31:04.708Z,7.50
2023-04-02T01:33:34.324Z,7.60
2023-04-02T01:36:09.345Z,7.60
2023-04-02T01:38:44.308Z,7.50
2023-04-02T01:41:20.425Z,7.60
2023-04-02T01:43:52.208Z,7.50
2023-04-02T01:46:29.137Z,7.50
2023-04-02T01:49:00.471Z,7.40
2023-04-02T01:51:29.296Z,7.50
2023-04-02T01:53:56.793Z,7.50
2023-04-02T01:56:23.359Z,7.50
2023-04-02T01:58:50.075Z,7.50
2023-04-02T02:01:18.575Z,7.50
2023-04-02T02:03:45.566Z,7.60
2023-04-02T02:06:13.491Z,7.50
2023-04-02T02:08:49.362Z,7.50
2023-04-02T02:11:17.929Z,7.60
2023-04-02T02:13:50.437Z,7.50
2023-04-02T02:16:18.126Z,7.50
2023-04-02T02:18:48.832Z,7.40
2023-04-02T02:21:22.149Z,7.50
2023-04-02T02:23:48.740Z,7.40
2023-04-02T02:26:16.032Z,7.50
2023-04-02T02:28:43.922Z,7.70
2023-04-02T02:31:19.201Z,7.70
2023-04-02T02:33:48.022Z,7.60
2023-04-02T02:36:29.994Z,7.70
2023-04-02T02:39:00.947Z,7.60
2023-04-02T02:41:35.356Z,7.70
2023-04-02T02:44:04.869Z,7.60
2023-04-02T02:46:32.421Z,7.70
2023-04-02T02:48:59.817Z,8.30
2023-04-02T02:51:38.002Z,7.90
2023-04-02T02:54:05.396Z,7.90
2023-04-02T02:56:33.888Z,7.80
2023-04-02T02:59:01.167Z,7.80
2023-04-02T03:01:28.947Z,7.90
2023-04-02T03:03:55.998Z,7.90
2023-04-02T03:06:22.755Z,7.90
2023-04-02T03:08:54.261Z,7.90
2023-04-02T03:11:32.782Z,7.90
2023-04-02T03:14:06.754Z,8.00
2023-04-02T03:16:45.502Z,8.10
2023-04-02T03:19:24.739Z,8.10
2023-04-02T03:21:57.061Z,8.00
2023-04-02T03:24:42.256Z,8.00
2023-04-02T03:27:08.773Z,8.00
2023-04-02T03:29:37.150Z,7.90
2023-04-02T03:32:06.074Z,8.00
2023-04-02T03:34:38.183Z,7.70
2023-04-02T03:37:10.902Z,7.70
2023-04-02T03:39:40.779Z,7.70
2023-04-02T03:42:10.040Z,7.80
2023-04-02T03:44:39.218Z,7.90
2023-04-02T03:47:12.141Z,7.90
2023-04-02T03:49:46.453Z,7.80
2023-04-02T03:52:31.223Z,7.90
2023-04-02T03:54:59.202Z,7.90
2023-04-02T03:57:37.596Z,7.80
2023-04-02T04:00:24.466Z,7.80
2023-04-02T04:02:52.645Z,7.80
2023-04-02T04:05:46.445Z,7.70
2023-04-02T04:08:15.680Z,7.70
2023-04-02T04:10:42.735Z,7.70
2023-04-02T04:13:12.638Z,7.60
2023-04-02T04:15:48.711Z,7.60
2023-04-02T04:18:38.285Z,7.60
2023-04-02T04:21:37.039Z,7.50
2023-04-02T04:24:07.907Z,7.50
2023-04-02T04:26:43.369Z,7.50
2023-04-02T04:29:15.795Z,7.50
2023-04-02T04:31:49.687Z,7.30
2023-04-02T04:34:25.424Z,7.30
2023-04-02T04:36:54.512Z,7.30
2023-04-02T04:39:25.252Z,7.30
2023-04-02T04:41:52.362Z,7.30
2023-04-02T04:44:18.906Z,7.40
2023-04-02T04:46:49.172Z,7.40
2023-04-02T04:49:38.762Z,7.40
2023-04-02T04:52:17.884Z,7.40
2023-04-02T04:54:45.633Z,7.20
2023-04-02T04:57:20.219Z,7.20
2023-04-02T04:59:54.980Z,7.30
2023-04-02T05:02:27.558Z,7.30
2023-04-02T05:04:54.190Z,7.20
2023-04-02T05:07:20.846Z,7.30
2023-04-02T05:10:05.927Z,7.20
2023-04-02T05:12:36.469Z,7.30
2023-04-02T05:15:03.003Z,7.30
2023-04-02T05:17:33.384Z,7.30
2023-04-02T05:20:18.699Z,7.30
2023-04-02T05:22:50.907Z,7.00
2023-04-02T05:25:20.829Z,7.20
2023-04-02T05:27:53.130Z,7.10
2023-04-02T05:30:22.700Z,7.30
2023-04-02T05:32:58.694Z,7.40
2023-04-02T05:35:28.611Z,7.30
2023-04-02T05:37:55.218Z,7.40
2023-04-02T05:40:25.693Z,7.30
2023-04-02T05:42:55.737Z,7.50
2023-04-02T05:45:25.216Z,7.50
2023-04-02T05:47:53.992Z,7.30
2023-04-02T05:50:37.049Z,7.20
2023-04-02T05:53:08.606Z,7.30
2023-04-02T05:55:41.686Z,7.40
2023-04-02T06:00:53.509Z,7.50
2023-04-02T06:03:27.056Z,7.60
2023-04-02T06:05:55.952Z,7.70
2023-04-02T06:08:35.232Z,7.80
2023-04-02T06:11:07.324Z,7.60
2023-04-02T06:13:34.053Z,7.60
2023-04-02T06:16:00.812Z,7.60
2023-04-02T06:18:28.404Z,7.40
2023-04-02T06:20:55.326Z,7.40
2023-04-02T06:23:32.046Z,7.40
2023-04-02T06:26:11.358Z,7.30
2023-04-02T06:28:48.872Z,7.40
2023-04-02T06:31:35.899Z,7.30
2023-04-02T06:34:03.923Z,7.20
2023-04-02T06:36:30.860Z,7.40
2023-04-02T06:38:58.814Z,7.30
2023-04-02T06:41:25.402Z,7.40
2023-04-02T06:43:51.925Z,7.60
2023-04-02T06:46:21.877Z,7.60
2023-04-02T06:48:50.525Z,7.60
2023-04-02T06:51:18.225Z,7.50
2023-04-02T06:53:46.735Z,7.40
2023-04-02T06:56:19.767Z,7.50
2023-04-02T06:58:46.372Z,7.70
2023-04-02T07:01:17.342Z,7.70
2023-04-02T07:03:43.973Z,7.60
2023-04-02T07:06:17.673Z,7.80
2023-04-02T07:08:44.382Z,7.90
2023-04-02T07:11:21.270Z,8.00
2023-04-02T07:13:48.139Z,8.00
2023-04-02T07:16:16.095Z,8.00
2023-04-02T07:18:43.035Z,8.10
2023-04-02T07:21:09.670Z,8.20
2023-04-02T07:23:36.610Z,8.20
2023-04-02T07:26:04.832Z,8.40
2023-04-02T07:28:31.716Z,8.40
2023-04-02T07:30:58.270Z,8.30
2023-04-02T07:33:26.182Z,8.50
2023-04-02T07:35:54.117Z,8.50
2023-04-02T07:38:20.784Z,8.60
2023-04-02T07:40:47.690Z,8.70
2023-04-02T07:43:14.320Z,8.80
2023-04-02T07:45:40.871Z,9.00
2023-04-02T07:48:08.812Z,9.20
2023-04-02T07:50:35.727Z,9.10
2023-04-02T07:53:02.676Z,9.20
2023-04-02T07:55:29.227Z,9.10
2023-04-02T07:57:56.659Z,9.20
2023-04-02T08:00:25.776Z,9.10
2023-04-02T08:02:52.964Z,9.20
2023-04-02T08:05:19.615Z,9.20
2023-04-02T08:07:54.230Z,9.10
2023-04-02T08:10:21.001Z,9.40
2023-04-02T08:12:47.678Z,9.40
2023-04-02T08:15:15.066Z,9.50
2023-04-02T08:17:43.094Z,9.60
2023-04-02T08:20:14.877Z,10.00
2023-04-02T08:22:41.419Z,10.20
2023-04-02T08:25:08.811Z,10.40
2023-04-02T08:27:35.570Z,10.10
2023-04-02T08:30:02.194Z,10.00
2023-04-02T08:32:29.157Z,9.90
2023-04-02T08:34:56.092Z,10.10
2023-04-02T08:37:22.699Z,9.90
2023-04-02T08:39:49.221Z,9.90
2023-04-02T08:42:31.612Z,10.20
2023-04-02T08:45:00.166Z,10.20
2023-04-02T08:47:32.530Z,10.20
2023-04-02T08:50:01.685Z,9.70
2023-04-02T08:52:32.315Z,9.80
2023-04-02T08:55:00.456Z,10.10
2023-04-02T08:57:39.306Z,10.00
2023-04-02T09:00:26.369Z,10.00
2023-04-02T09:02:56.780Z,10.30
2023-04-02T09:05:26.371Z,10.50
2023-04-02T09:07:54.195Z,10.60
2023-04-02T09:10:21.012Z,10.90
2023-04-02T09:12:50.791Z,10.60
2023-04-02T09:15:24.618Z,10.60
2023-04-02T09:17:58.982Z,10.90
2023-04-02T09:20:26.671Z,11.30
2023-04-02T09:22:54.242Z,11.40
2023-04-02T09:25:22.380Z,11.20
2023-04-02T09:27:50.432Z,11.30
2023-04-02T09:30:32.262Z,11.60
2023-04-02T09:33:07.547Z,11.40
2023-04-02T09:35:36.116Z,11.60
2023-04-02T09:38:17.777Z,11.50
2023-04-02T09:40:53.630Z,11.60
2023-04-02T09:43:21.727Z,11.90
2023-04-02T09:46:05.752Z,12.00
2023-04-02T09:48:34.210Z,11.60
2023-04-02T09:51:08.166Z,11.70
2023-04-02T09:53:36.247Z,11.60
2023-04-02T09:56:16.650Z,11.40
2023-04-02T09:58:44.712Z,11.90
2023-04-02T10:01:26.555Z,12.00
2023-04-02T10:03:53.231Z,12.00
2023-04-02T10:06:20.549Z,12.10
2023-04-02T10:08:47.293Z,12.10
2023-04-02T10:11:19.748Z,12.10
2023-04-02T10:13:53.110Z,11.80
2023-04-02T10:16:33.174Z,12.00
2023-04-02T10:19:18.941Z,12.40
2023-04-02T10:21:46.061Z,13.10
2023-04-02T10:24:13.903Z,13.10
2023-04-02T10:26:41.254Z,13.60
2023-04-02T10:29:27.204Z,13.80
2023-04-02T10:32:14.206Z,13.60
2023-04-02T10:35:02.548Z,13.90
2023-04-02T10:37:29.150Z,15.10
2023-04-02T10:39:58.631Z,15.70
2023-04-02T10:42:34.734Z,15.90
2023-04-02T10:45:01.803Z,16.80
2023-04-02T10:47:38.084Z,17.30
2023-04-02T10:50:24.482Z,17.60
2023-04-02T10:53:09.600Z,17.20
2023-04-02T10:55:40.943Z,15.20
2023-04-02T10:58:13.931Z,14.10
2023-04-02T11:00:42.937Z,14.00
2023-04-02T11:03:14.246Z,12.60
2023-04-02T11:05:44.155Z,12.90
2023-04-02T11:08:24.717Z,13.20
2023-04-02T11:11:04.655Z,13.30
2023-04-02T11:13:35.929Z,13.60
2023-04-02T11:16:03.727Z,14.60
2023-04-02T11:18:36.118Z,14.80
2023-04-02T11:21:04.903Z,14.80
2023-04-02T11:23:35.723Z,14.50
2023-04-02T11:26:21.548Z,14.90
2023-04-02T11:28:48.173Z,14.70
2023-04-02T11:31:20.159Z,14.70
2023-04-02T11:33:48.839Z,14.70
2023-04-02T11:36:35.494Z,14.70
2023-04-02T11:39:14.668Z,14.90
2023-04-02T11:42:04.542Z,15.00
2023-04-02T11:44:31.435Z,15.10
2023-04-02T11:47:16.621Z,14.90
2023-04-02T11:49:52.684Z,14.80
2023-04-02T11:52:23.965Z,14.70
2023-04-02T11:54:58.749Z,14.90
2023-04-02T11:57:31.890Z,15.10
2023-04-02T12:00:13.312Z,15.90
2023-04-02T12:03:02.537Z,17.10
2023-04-02T12:05:54.688Z,17.70
2023-04-02T12:08:30.236Z,17.00
2023-04-02T12:11:01.016Z,16.70
2023-04-02T12:13:39.819Z,16.20
2023-04-02T12:16:07.352Z,15.70
2023-04-02T12:18:34.346Z,15.10
2023-04-02T12:21:01.282Z,15.10
2023-04-02T12:23:31.138Z,14.50
2023-04-02T12:26:01.990Z,14.40
2023-04-02T12:28:29.100Z,14.40
2023-04-02T12:31:03.510Z,14.20
2023-04-02T12:33:33.602Z,14.60
2023-04-02T12:36:01.715Z,15.00
2023-04-02T12:38:30.926Z,16.30
2023-04-02T12:40:59.022Z,17.50
2023-04-02T12:43:33.122Z,17.50
2023-04-02T12:46:04.479Z,16.70
2023-04-02T12:48:31.855Z,16.60
2023-04-02T12:50:58.848Z,15.80
2023-04-02T12:53:34.628Z,15.30
2023-04-02T12:56:01.359Z,14.60
2023-04-02T12:58:29.743Z,14.10
2023-04-02T13:01:10.346Z,14.10
2023-04-02T13:03:37.083Z,14.20
2023-04-02T13:06:04.231Z,14.10
2023-04-02T13:08:33.176Z,14.00
2023-04-02T13:11:01.439Z,13.80
2023-04-02T13:13:34.452Z,13.60
2023-04-02T13:16:05.870Z,13.50
2023-04-02T13:18:33.506Z,13.30
2023-04-02T13:21:02.944Z,13.30
2023-04-02T13:23:32.396Z,13.00
2023-04-02T13:25:58.986Z,12.90
2023-04-02T13:28:25.937Z,12.90
2023-04-02T13:30:52.631Z,12.80
2023-04-02T13:33:20.387Z,12.80
2023-04-02T13:35:47.105Z,12.80
2023-04-02T13:38:13.847Z,12.60
2023-04-02T13:40:40.441Z,12.40
2023-04-02T13:43:08.044Z,12.30
2023-04-02T13:45:36.431Z,12.10
2023-04-02T13:48:03.627Z,11.90
2023-04-02T13:50:31.602Z,11.70
2023-04-02T13:52:59.835Z,12.00
2023-04-02T13:55:29.241Z,12.10
2023-04-02T13:57:56.644Z,12.20
2023-04-02T14:00:23.987Z,12.40
2023-04-02T14:02:53.352Z,12.80
2023-04-02T14:05:29.043Z,13.30
2023-04-02T14:08:16.572Z,13.90
2023-04-02T14:10:53.114Z,14.50
2023-04-02T14:13:26.473Z,14.30
2023-04-02T14:16:11.903Z,14.00
2023-04-02T14:18:41.557Z,13.60
2023-04-02T14:21:08.151Z,13.30
2023-04-02T14:23:41.048Z,13.10
2023-04-02T14:26:07.628Z,12.60
2023-04-02T14:28:49.338Z,12.30
2023-04-02T14:31:25.730Z,12.20
2023-04-02T14:33:58.574Z,11.80
2023-04-02T14:36:25.173Z,11.70
2023-04-02T14:38:51.856Z,11.70
2023-04-02T14:41:22.456Z,11.70
2023-04-02T14:43:54.445Z,11.60
2023-04-02T14:46:24.904Z,11.60
2023-04-02T14:48:57.120Z,11.40
2023-04-02T14:51:26.422Z,11.40
2023-04-02T14:54:11.701Z,11.40
2023-04-02T14:56:50.679Z,11.20
2023-04-02T14:59:35.555Z,11.10
2023-04-02T15:02:20.495Z,11.00
2023-04-02T15:04:52.725Z,10.90
2023-04-02T15:07:22.586Z,10.80
2023-04-02T15:09:51.938Z,10.80
2023-04-02T15:12:31.046Z,10.80
2023-04-02T15:15:19.070Z,10.90
2023-04-02T15:17:47.184Z,10.80
2023-04-02T15:20:15.881Z,10.70
2023-04-02T15:22:47.654Z,10.70
2023-04-02T15:25:33.432Z,10.50
2023-04-02T15:28:18.608Z,10.20
2023-04-02T15:30:45.818Z,10.20
2023-04-02T15:33:27.659Z,10.20
2023-04-02T15:36:13.083Z,10.30
2023-04-02T15:38:47.547Z,10.30
2023-04-02T15:41:15.116Z,10.50
2023-04-02T15:43:49.388Z,10.70
2023-04-02T15:46:15.970Z,10.70
2023-04-02T15:48:57.313Z,10.60
2023-04-02T15:51:23.914Z,10.70
2023-04-02T15:54:02.958Z,10.70
2023-04-02T15:56:34.193Z,10.60
2023-04-02T15:59:19.139Z,10.60
2023-04-02T16:02:09.125Z,10.60
2023-04-02T16:04:45.647Z,10.50
2023-04-02T16:07:21.559Z,10.30
2023-04-02T16:09:52.599Z,10.00
2023-04-02T16:12:19.951Z,10.00
2023-04-02T16:14:47.984Z,9.70
2023-04-02T16:17:34.894Z,9.50
2023-04-02T16:20:14.064Z,9.40
2023-04-02T16:22:53.392Z,9.30
2023-04-02T16:25:29.527Z,9.30
2023-04-02T16:28:18.876Z,9.40
2023-04-02T16:30:49.048Z,9.30
2023-04-02T16:33:21.715Z,9.20
2023-04-02T16:35:57.598Z,9.30
2023-04-02T16:38:33.032Z,9.30
2023-04-02T16:41:08.212Z,9.30
2023-04-02T16:43:38.220Z,9.30
2023-04-02T16:46:38.191Z,9.30
2023-04-02T16:49:24.744Z,9.20
2023-04-02T16:52:03.251Z,9.10
2023-04-02T16:54:35.591Z,8.90
2023-04-02T16:57:12.653Z,8.80
2023-04-02T16:59:39.270Z,8.70
2023-04-02T17:02:11.869Z,8.70
2023-04-02T17:04:46.274Z,8.70
2023-04-02T17:07:31.681Z,8.70
2023-04-02T17:10:17.331Z,8.70
2023-04-02T17:12:45.691Z,8.70
2023-04-02T17:15:26.620Z,8.80
2023-04-02T17:17:57.348Z,8.50
2023-04-02T17:20:25.112Z,8.40
2023-04-02T17:22:52.435Z,8.30
2023-04-02T17:25:39.377Z,8.30
2023-04-02T17:28:09.168Z,8.30
2023-04-02T17:30:38.126Z,8.20
2023-04-02T17:33:10.532Z,8.10
2023-04-02T17:35:51.178Z,8.00
2023-04-02T17:38:28.677Z,7.80
2023-04-02T17:41:03.703Z,7.60
2023-04-02T17:43:30.270Z,7.60
2023-04-02T17:45:59.094Z,7.50
2023-04-02T17:48:41.192Z,7.40
2023-04-02T17:51:40.337Z,7.50
2023-04-02T17:54:19.666Z,7.50
2023-04-02T17:56:55.241Z,7.40
2023-04-02T17:59:42.346Z,8.00
2023-04-02T18:02:28.033Z,7.50
2023-04-02T18:05:17.048Z,7.40
2023-04-02T18:07:52.284Z,7.40
2023-04-02T18:10:31.041Z,7.50
2023-04-02T18:13:01.834Z,7.40
2023-04-02T18:15:37.749Z,7.30
2023-04-02T18:18:16.530Z,7.20
2023-04-02T18:20:50.464Z,6.90
2023-04-02T18:23:35.980Z,6.90
2023-04-02T18:26:05.669Z,6.90
2023-04-02T18:28:38.902Z,6.90
2023-04-02T18:31:24.644Z,6.80
2023-04-02T18:34:13.240Z,6.70
2023-04-02T18:36:58.744Z,6.60
2023-04-02T18:39:48.374Z,6.70
2023-04-02T18:42:33.555Z,6.70
2023-04-02T18:45:00.131Z,6.80
2023-04-02T18:47:45.690Z,6.70
2023-04-02T18:50:15.872Z,6.70
2023-04-02T18:52:42.511Z,6.80
2023-04-02T18:55:18.113Z,6.80
2023-04-02T18:57:46.359Z,6.70
2023-04-02T19:00:13.231Z,6.60
2023-04-02T19:02:42.291Z,6.60
2023-04-02T19:05:15.064Z,6.30
2023-04-02T19:07:43.239Z,6.30
2023-04-02T19:10:25.475Z,6.10
2023-04-02T19:12:52.058Z,6.00
2023-04-02T19:15:21.271Z,5.80
2023-04-02T19:18:06.857Z,5.90
2023-04-02T19:20:43.333Z,5.80
2023-04-02T19:23:17.576Z,5.70
2023-04-02T19:25:50.161Z,5.80
2023-04-02T19:28:19.667Z,5.90
2023-04-02T19:31:06.129Z,6.00
2023-04-02T19:33:45.582Z,6.00
2023-04-02T19:36:31.136Z,6.00
2023-04-02T19:38:57.858Z,5.90
2023-04-02T19:41:36.383Z,5.90
2023-04-02T19:44:03.186Z,5.90
2023-04-02T19:46:29.918Z,6.00
2023-04-02T19:49:05.940Z,5.80
2023-04-02T19:51:33.717Z,5.70
2023-04-02T19:54:00.749Z,5.60
2023-04-02T19:56:28.164Z,5.50
2023-04-02T19:58:56.638Z,5.60
2023-04-02T20:01:23.474Z,5.60
2023-04-02T20:03:50.295Z,5.40
2023-04-02T20:06:18.758Z,5.50
2023-04-02T20:08:45.400Z,5.40
2023-04-02T20:11:12.064Z,5.30
2023-04-02T20:13:38.772Z,5.20
2023-04-02T20:16:06.319Z,5.10
2023-04-02T20:18:33.638Z,5.20
2023-04-02T20:21:03.636Z,5.20
2023-04-02T20:23:30.304Z,5.00
2023-04-02T20:25:57.314Z,5.10
2023-04-02T20:28:24.875Z,5.00
2023-04-02T20:30:51.926Z,5.00
2023-04-02T20:33:23.788Z,5.00
2023-04-02T20:35:51.141Z,5.10
2023-04-02T20:38:18.155Z,5.00
2023-04-02T20:40:46.321Z,4.80
2023-04-02T20:43:13.010Z,4.80
2023-04-02T20:45:39.597Z,5.00
2023-04-02T20:48:06.767Z,4.90
2023-04-02T20:50:33.447Z,4.80
2023-04-02T20:53:00.127Z,4.60
2023-04-02T20:55:26.854Z,4.60
2023-04-02T20:57:53.554Z,4.50
2023-04-02T21:00:20.262Z,4.40
2023-04-02T21:02:46.899Z,4.40
2023-04-02T21:05:13.635Z,4.50
2023-04-02T21:07:40.294Z,4.50
2023-04-02T21:10:06.996Z,4.50
2023-04-02T21:12:33.599Z,4.40
2023-04-02T21:15:02.494Z,4.40
2023-04-02T21:17:29.719Z,4.40
2023-04-02T21:19:56.337Z,4.30
2023-04-02T21:22:22.977Z,4.20
2023-04-02T21:24:49.562Z,4.20
2023-04-02T21:27:16.760Z,4.30
2023-04-02T21:29:43.412Z,4.10
2023-04-02T21:32:20.806Z,4.20
2023-04-02T21:34:48.511Z,4.20
2023-04-02T21:37:15.420Z,4.20
2023-04-02T21:39:42.059Z,4.10
2023-04-02T21:42:08.736Z,4.10
2023-04-02T21:44:35.353Z,5.80
2023-04-02T21:47:02.014Z,4.10
2023-04-02T21:49:29.736Z,4.10
2023-04-02T21:51:56.357Z,4.10
2023-04-02T21:54:23.025Z,4.20
2023-04-02T21:56:49.982Z,4.20
2023-04-02T21:59:17.502Z,4.40
2023-04-02T22:01:45.846Z,4.20
2023-04-02T22:04:23.853Z,4.20
2023-04-02T22:06:52.312Z,4.20
2023-04-02T22:09:20.562Z,4.20
2023-04-02T22:11:48.495Z,4.30
2023-04-02T22:14:15.285Z,4.40
2023-04-02T22:16:42.189Z,4.30
2023-04-02T22:19:10.179Z,4.40
2023-04-02T22:21:37.345Z,4.20
2023-04-02T22:24:05.297Z,4.00
2023-04-02T22:26:32.639Z,4.00
2023-04-02T22:28:59.848Z,3.80
2023-04-02T22:31:28.542Z,3.70
2023-04-02T22:33:55.938Z,5.10
2023-04-02T22:36:22.954Z,3.60
2023-04-02T22:38:49.794Z,3.50
2023-04-02T22:41:17.698Z,3.40
2023-04-02T22:43:45.328Z,3.30
2023-04-02T22:46:13.412Z,3.40
2023-04-02T22:48:40.549Z,3.40
2023-04-02T22:51:07.985Z,3.50
2023-04-02T22:53:35.305Z,3.40
2023-04-02T22:56:12.483Z,3.40
2023-04-02T22:58:39.568Z,3.40
2023-04-02T23:01:07.872Z,3.40
2023-04-02T23:03:34.590Z,3.40
2023-04-02T23:06:02.235Z,3.40
2023-04-02T23:08:28.812Z,3.30
2023-04-02T23:11:03.231Z,3.40
2023-04-02T23:13:30.298Z,3.30
2023-04-02T23:15:57.034Z,3.40
2023-04-02T23:18:23.697Z,3.40
2023-04-02T23:20:50.288Z,3.50
2023-04-02T23:23:16.921Z,3.50
2023-04-02T23:25:43.556Z,3.50
2023-04-02T23:28:12.058Z,3.60
2023-04-02T23:30:38.783Z,3.60
2023-04-02T23:33:05.530Z,3.70
2023-04-02T23:35:32.187Z,3.70
2023-04-02T23:37:58.832Z,3.70
2023-04-02T23:40:26.078Z,3.80
2023-04-02T23:42:52.754Z,3.70
2023-04-02T23:45:19.352Z,3.80
2023-04-02T23:47:46.060Z,3.70
2023-04-02T23:50:12.652Z,3.70
2023-04-02T23:52:39.230Z,3.70
2023-04-02T23:55:06.540Z,3.80
2023-04-02T23:57:33.213Z,3.80
2023-04-02T23:59:59.954Z,3.80
